KPSK/PSK METAR and TAF weather

Enter ICAO airport designator
Station Type Date Time Source
KPSK METAR 2020/11/27 01:55 UTC NOAA

KPSK 270155Z AUTO 22005KT 10SM CLR 09/06 A3009 RMK AO2 T00870058


Station Type Date Time Source
KPSK Decoded METAR 2020/11/27 01:55 UTC NOAA

Dublin / New River Valley, VA, United States (KPSK) 37-08N 080-41W
Nov 26, 2020 - 08:55 PM EST / 2020.11.27 0155 UTC
Wind: from the SW (220 degrees) at 6 MPH (5 KT):0
Visibility: 10 mile(s):0
Sky conditions: clear
Temperature: 47.7 F (8.7 C)
Dew Point: 42.4 F (5.8 C)
Relative Humidity: 81%
Pressure (altimeter): 30.09 in. Hg (1018 hPa)
ob: KPSK 270155Z AUTO 22005KT 10SM CLR 09/06 A3009 RMK AO2 T00870058
cycle: 2

Station Type Date Time Source
KPSK TAF UTC NOAA

Error!

Example: see airport list